createdAt,value
2023-01-25T00:02:13.496Z,102289.94
2023-01-25T00:12:18.588Z,102281.34
2023-01-25T00:22:23.258Z,102273.56
2023-01-25T00:32:43.637Z,102266.06
2023-01-25T00:42:47.401Z,102261.75
2023-01-25T00:52:52.409Z,102263.69
2023-01-25T01:02:56.768Z,102253.09
2023-01-25T01:13:01.801Z,102259.72
2023-01-25T01:23:05.479Z,102257.41
2023-01-25T01:33:10.563Z,102259.78
2023-01-25T01:43:19.946Z,102249.72
2023-01-25T01:53:27.137Z,102242.09
2023-01-25T02:03:31.763Z,102231.09
2023-01-25T02:13:37.293Z,102227.84
2023-01-25T02:23:48.500Z,102228.44
2023-01-25T02:33:53.666Z,102218.13
2023-01-25T02:43:57.299Z,102223.91
2023-01-25T02:54:03.872Z,102215.00
2023-01-25T03:04:08.229Z,102214.13
2023-01-25T03:14:13.342Z,102208.44
2023-01-25T03:24:17.072Z,102205.31
2023-01-25T03:34:22.233Z,102191.59
2023-01-25T03:44:26.011Z,102180.72
2023-01-25T03:54:31.140Z,102186.44
2023-01-25T04:04:34.799Z,102180.84
2023-01-25T04:14:44.810Z,102178.09
2023-01-25T04:24:48.784Z,102174.84
2023-01-25T04:34:53.867Z,102160.78
2023-01-25T04:44:57.491Z,102143.13
2023-01-25T04:55:02.564Z,102141.66
2023-01-25T05:05:08.037Z,102122.59
2023-01-25T05:15:13.557Z,102120.50
2023-01-25T05:25:35.345Z,102119.00
2023-01-25T05:35:40.676Z,102106.16
2023-01-25T05:45:44.313Z,102104.59
2023-01-25T05:55:49.428Z,102098.78
2023-01-25T06:05:56.679Z,102111.38
2023-01-25T06:16:03.107Z,102112.84
2023-01-25T06:26:09.875Z,102101.06
2023-01-25T06:36:16.688Z,102101.94
2023-01-25T06:46:20.880Z,102112.44
2023-01-25T06:56:27.763Z,102107.63
2023-01-25T07:06:34.993Z,102103.91
2023-01-25T07:16:40.161Z,102114.25
2023-01-25T07:26:44.293Z,102103.38
2023-01-25T07:36:49.713Z,102107.19
2023-01-25T07:46:55.212Z,102099.13
2023-01-25T07:57:00.809Z,102098.72
2023-01-25T08:07:04.567Z,102102.69
2023-01-25T08:17:09.629Z,102094.50
2023-01-25T08:27:13.368Z,102099.94
2023-01-25T08:37:18.588Z,102087.63
2023-01-25T08:47:22.268Z,102082.81
2023-01-25T08:57:27.583Z,102078.41
2023-01-25T09:07:32.364Z,102063.72
2023-01-25T09:17:38.954Z,102067.53
2023-01-25T09:27:42.859Z,102062.31
2023-01-25T09:37:52.582Z,102058.09
2023-01-25T09:48:01.907Z,102058.78
2023-01-25T09:58:15.622Z,102057.59
2023-01-25T10:08:29.184Z,102048.09
2023-01-25T10:18:47.559Z,102035.84
2023-01-25T10:28:58.772Z,102023.78
2023-01-25T10:39:07.444Z,102006.13
2023-01-25T10:49:24.514Z,101989.72
2023-01-25T10:59:30.120Z,101977.97
2023-01-25T11:09:38.025Z,101964.59
2023-01-25T11:19:43.307Z,101943.97
2023-01-25T11:29:47.700Z,101933.84
2023-01-25T11:40:09.016Z,101916.19
2023-01-25T11:50:22.154Z,101902.41
2023-01-25T12:00:54.987Z,101869.19
2023-01-25T12:11:07.235Z,101846.25
2023-01-25T12:21:33.089Z,101833.78
2023-01-25T12:31:52.642Z,101811.88
2023-01-25T12:42:04.522Z,101802.50
2023-01-25T12:52:19.559Z,101789.41
2023-01-25T13:02:44.328Z,101783.09
2023-01-25T13:12:56.701Z,101752.56
2023-01-25T13:23:02.026Z,101731.72
2023-01-25T13:33:07.776Z,101699.38
2023-01-25T13:43:20.922Z,101688.78
2023-01-25T13:53:29.460Z,101677.53
2023-01-25T14:03:38.247Z,101665.59
2023-01-25T14:14:01.150Z,101653.13
2023-01-25T14:24:12.860Z,101633.78
2023-01-25T14:34:19.745Z,101630.09
2023-01-25T14:44:25.778Z,101616.69
2023-01-25T14:54:33.263Z,101605.41
2023-01-25T15:04:38.419Z,101589.19
2023-01-25T15:14:49.264Z,101579.97
2023-01-25T15:24:58.372Z,101576.38
2023-01-25T15:35:02.394Z,101567.59
2023-01-25T15:45:10.298Z,101564.34
2023-01-25T15:55:15.261Z,101554.44
2023-01-25T16:05:20.303Z,101559.69
2023-01-25T16:15:23.978Z,101561.03
2023-01-25T16:25:29.177Z,101566.28
2023-01-25T16:35:32.871Z,101565.16
2023-01-25T16:45:39.785Z,101554.59
2023-01-25T16:55:43.694Z,101545.91
2023-01-25T17:05:48.676Z,101538.59
2023-01-25T17:15:52.402Z,101519.66
2023-01-25T17:25:57.526Z,101513.09
2023-01-25T17:36:03.688Z,101503.66
2023-01-25T17:46:18.828Z,101500.56
2023-01-25T17:56:22.729Z,101485.69
2023-01-25T18:06:30.665Z,101469.31
2023-01-25T18:16:35.318Z,101462.16
2023-01-25T18:26:42.253Z,101440.06
2023-01-25T18:36:46.063Z,101433.09
2023-01-25T18:46:51.528Z,101435.34
2023-01-25T18:56:55.854Z,101424.91
2023-01-25T19:07:01.847Z,101422.38
2023-01-25T19:17:07.446Z,101420.50
2023-01-25T19:27:12.558Z,101406.31
2023-01-25T19:37:16.693Z,101386.09
2023-01-25T19:47:22.062Z,101382.09
2023-01-25T19:57:25.973Z,101375.13
2023-01-25T20:07:32.434Z,101348.09
2023-01-25T20:17:36.701Z,101344.16
2023-01-25T20:27:41.795Z,101330.44
2023-01-25T20:37:46.431Z,101336.41
2023-01-25T20:47:52.697Z,101336.66
2023-01-25T20:57:56.518Z,101339.50
2023-01-25T21:08:01.549Z,101326.94
2023-01-25T21:18:05.831Z,101327.56
2023-01-25T21:28:10.824Z,101319.38
2023-01-25T21:38:14.643Z,101301.53
2023-01-25T21:48:39.638Z,101294.22
2023-01-25T21:58:43.345Z,101285.97
2023-01-25T22:08:48.492Z,101258.41
2023-01-25T22:18:52.201Z,101247.78
2023-01-25T22:28:59.057Z,101220.56
2023-01-25T22:39:02.793Z,101202.19
2023-01-25T22:49:07.770Z,101205.31
2023-01-25T22:59:14.727Z,101189.47
2023-01-25T23:09:19.729Z,101182.84
2023-01-25T23:19:23.407Z,101180.56
2023-01-25T23:29:28.513Z,101170.13
2023-01-25T23:39:33.612Z,101169.13
2023-01-25T23:49:38.819Z,101139.47
2023-01-25T23:59:42.596Z,101125.25
